sensor_id;sensor_type;location;lat;lon;timestamp;P1;durP1;ratioP1;P2;durP2;ratioP2
74459;SDS011;62902;48.854;9.292;2023-01-04T00:02:22;9.52;;;4.70;;
74459;SDS011;62902;48.854;9.292;2023-01-04T00:04:48;9.25;;;4.43;;
74459;SDS011;62902;48.854;9.292;2023-01-04T00:07:15;12.02;;;5.18;;
74459;SDS011;62902;48.854;9.292;2023-01-04T00:09:41;10.35;;;5.05;;
74459;SDS011;62902;48.854;9.292;2023-01-04T00:12:08;8.52;;;4.32;;
74459;SDS011;62902;48.854;9.292;2023-01-04T00:14:35;8.05;;;4.38;;
74459;SDS011;62902;48.854;9.292;2023-01-04T00:17:01;9.48;;;4.55;;
74459;SDS011;62902;48.854;9.292;2023-01-04T00:19:28;9.68;;;4.45;;
74459;SDS011;62902;48.854;9.292;2023-01-04T00:21:54;9.60;;;4.25;;
74459;SDS011;62902;48.854;9.292;2023-01-04T00:24:21;7.90;;;4.40;;
74459;SDS011;62902;48.854;9.292;2023-01-04T00:26:47;7.55;;;4.00;;
74459;SDS011;62902;48.854;9.292;2023-01-04T00:29:14;10.13;;;4.88;;
74459;SDS011;62902;48.854;9.292;2023-01-04T00:31:40;10.02;;;4.30;;
74459;SDS011;62902;48.854;9.292;2023-01-04T00:34:10;7.63;;;3.72;;
74459;SDS011;62902;48.854;9.292;2023-01-04T00:36:39;10.05;;;4.00;;
74459;SDS011;62902;48.854;9.292;2023-01-04T00:39:06;9.20;;;3.97;;
74459;SDS011;62902;48.854;9.292;2023-01-04T00:41:38;8.77;;;3.53;;
74459;SDS011;62902;48.854;9.292;2023-01-04T00:44:26;5.88;;;3.05;;
74459;SDS011;62902;48.854;9.292;2023-01-04T00:46:53;5.95;;;2.20;;
74459;SDS011;62902;48.854;9.292;2023-01-04T00:49:20;11.77;;;3.70;;
74459;SDS011;62902;48.854;9.292;2023-01-04T00:51:46;4.78;;;2.08;;
74459;SDS011;62902;48.854;9.292;2023-01-04T00:54:13;7.47;;;3.20;;
74459;SDS011;62902;48.854;9.292;2023-01-04T00:56:41;4.40;;;2.28;;
74459;SDS011;62902;48.854;9.292;2023-01-04T00:59:09;5.47;;;2.90;;
74459;SDS011;62902;48.854;9.292;2023-01-04T01:01:36;7.55;;;4.28;;
74459;SDS011;62902;48.854;9.292;2023-01-04T01:04:03;7.40;;;3.58;;
74459;SDS011;62902;48.854;9.292;2023-01-04T01:06:30;8.25;;;4.13;;
74459;SDS011;62902;48.854;9.292;2023-01-04T01:08:58;9.40;;;4.15;;
74459;SDS011;62902;48.854;9.292;2023-01-04T01:11:25;12.50;;;4.97;;
74459;SDS011;62902;48.854;9.292;2023-01-04T01:13:52;7.50;;;4.05;;
74459;SDS011;62902;48.854;9.292;2023-01-04T01:16:20;8.02;;;4.05;;
74459;SDS011;62902;48.854;9.292;2023-01-04T01:19:07;4.25;;;2.15;;
74459;SDS011;62902;48.854;9.292;2023-01-04T01:21:34;9.70;;;4.65;;
74459;SDS011;62902;48.854;9.292;2023-01-04T01:24:00;8.70;;;4.50;;
74459;SDS011;62902;48.854;9.292;2023-01-04T01:26:27;7.18;;;3.35;;
74459;SDS011;62902;48.854;9.292;2023-01-04T01:28:53;9.38;;;4.10;;
74459;SDS011;62902;48.854;9.292;2023-01-04T01:31:21;7.28;;;3.83;;
74459;SDS011;62902;48.854;9.292;2023-01-04T01:33:50;7.30;;;3.97;;
74459;SDS011;62902;48.854;9.292;2023-01-04T01:36:18;8.73;;;4.05;;
74459;SDS011;62902;48.854;9.292;2023-01-04T01:38:45;7.35;;;3.63;;
74459;SDS011;62902;48.854;9.292;2023-01-04T01:41:31;8.38;;;4.00;;
74459;SDS011;62902;48.854;9.292;2023-01-04T01:44:00;10.30;;;4.07;;
74459;SDS011;62902;48.854;9.292;2023-01-04T01:49:12;8.18;;;3.97;;
74459;SDS011;62902;48.854;9.292;2023-01-04T01:51:43;9.45;;;4.20;;
74459;SDS011;62902;48.854;9.292;2023-01-04T01:54:12;6.38;;;3.45;;
74459;SDS011;62902;48.854;9.292;2023-01-04T01:56:40;7.63;;;3.90;;
74459;SDS011;62902;48.854;9.292;2023-01-04T01:59:08;7.93;;;3.55;;
74459;SDS011;62902;48.854;9.292;2023-01-04T02:01:36;7.40;;;3.78;;
74459;SDS011;62902;48.854;9.292;2023-01-04T02:04:03;8.25;;;3.78;;
74459;SDS011;62902;48.854;9.292;2023-01-04T02:06:32;6.57;;;2.85;;
74459;SDS011;62902;48.854;9.292;2023-01-04T02:09:01;7.05;;;3.20;;
74459;SDS011;62902;48.854;9.292;2023-01-04T02:11:27;7.25;;;3.17;;
74459;SDS011;62902;48.854;9.292;2023-01-04T02:13:54;7.53;;;3.35;;
74459;SDS011;62902;48.854;9.292;2023-01-04T02:17:03;6.63;;;3.25;;
74459;SDS011;62902;48.854;9.292;2023-01-04T02:22:43;6.38;;;3.50;;
74459;SDS011;62902;48.854;9.292;2023-01-04T02:31:41;5.20;;;3.20;;
74459;SDS011;62902;48.854;9.292;2023-01-04T02:34:14;8.35;;;3.25;;
74459;SDS011;62902;48.854;9.292;2023-01-04T02:37:06;9.93;;;3.58;;
74459;SDS011;62902;48.854;9.292;2023-01-04T02:40:03;7.78;;;3.35;;
74459;SDS011;62902;48.854;9.292;2023-01-04T02:46:00;6.70;;;3.08;;
74459;SDS011;62902;48.854;9.292;2023-01-04T02:48:37;6.32;;;2.83;;
74459;SDS011;62902;48.854;9.292;2023-01-04T02:51:27;6.57;;;3.20;;
74459;SDS011;62902;48.854;9.292;2023-01-04T02:53:59;7.75;;;3.95;;
74459;SDS011;62902;48.854;9.292;2023-01-04T03:01:55;7.15;;;3.38;;
74459;SDS011;62902;48.854;9.292;2023-01-04T03:05:17;8.38;;;3.72;;
74459;SDS011;62902;48.854;9.292;2023-01-04T03:08:01;7.78;;;3.90;;
74459;SDS011;62902;48.854;9.292;2023-01-04T03:10:44;8.18;;;3.35;;
74459;SDS011;62902;48.854;9.292;2023-01-04T03:13:16;6.85;;;3.72;;
74459;SDS011;62902;48.854;9.292;2023-01-04T03:15:45;7.00;;;2.97;;
74459;SDS011;62902;48.854;9.292;2023-01-04T03:18:17;8.85;;;4.03;;
74459;SDS011;62902;48.854;9.292;2023-01-04T03:20:47;8.18;;;3.55;;
74459;SDS011;62902;48.854;9.292;2023-01-04T03:23:15;7.97;;;3.83;;
74459;SDS011;62902;48.854;9.292;2023-01-04T03:26:04;8.35;;;4.13;;
74459;SDS011;62902;48.854;9.292;2023-01-04T03:28:51;8.75;;;4.15;;
74459;SDS011;62902;48.854;9.292;2023-01-04T03:31:47;8.45;;;3.90;;
74459;SDS011;62902;48.854;9.292;2023-01-04T03:34:35;7.30;;;3.70;;
74459;SDS011;62902;48.854;9.292;2023-01-04T03:37:24;9.50;;;3.75;;
74459;SDS011;62902;48.854;9.292;2023-01-04T03:43:08;7.82;;;2.92;;
74459;SDS011;62902;48.854;9.292;2023-01-04T03:46:09;7.32;;;3.15;;
74459;SDS011;62902;48.854;9.292;2023-01-04T03:51:36;6.70;;;3.60;;
74459;SDS011;62902;48.854;9.292;2023-01-04T03:56:31;7.22;;;3.50;;
74459;SDS011;62902;48.854;9.292;2023-01-04T03:58:58;9.75;;;3.85;;
74459;SDS011;62902;48.854;9.292;2023-01-04T04:01:25;5.43;;;2.63;;
74459;SDS011;62902;48.854;9.292;2023-01-04T04:03:53;8.05;;;3.50;;
74459;SDS011;62902;48.854;9.292;2023-01-04T04:06:39;6.85;;;2.97;;
74459;SDS011;62902;48.854;9.292;2023-01-04T04:09:24;8.52;;;3.85;;
74459;SDS011;62902;48.854;9.292;2023-01-04T04:11:51;7.53;;;3.00;;
74459;SDS011;62902;48.854;9.292;2023-01-04T04:14:17;5.93;;;3.13;;
74459;SDS011;62902;48.854;9.292;2023-01-04T04:16:44;8.95;;;3.33;;
74459;SDS011;62902;48.854;9.292;2023-01-04T04:19:11;7.13;;;3.22;;
74459;SDS011;62902;48.854;9.292;2023-01-04T04:21:37;8.57;;;3.67;;
74459;SDS011;62902;48.854;9.292;2023-01-04T04:24:04;8.00;;;3.33;;
74459;SDS011;62902;48.854;9.292;2023-01-04T04:26:31;10.23;;;3.50;;
74459;SDS011;62902;48.854;9.292;2023-01-04T04:28:58;8.45;;;3.97;;
74459;SDS011;62902;48.854;9.292;2023-01-04T04:31:25;7.57;;;3.00;;
74459;SDS011;62902;48.854;9.292;2023-01-04T04:33:51;7.68;;;3.22;;
74459;SDS011;62902;48.854;9.292;2023-01-04T04:36:18;7.47;;;3.22;;
74459;SDS011;62902;48.854;9.292;2023-01-04T04:38:44;7.40;;;3.17;;
74459;SDS011;62902;48.854;9.292;2023-01-04T04:41:12;9.57;;;3.10;;
74459;SDS011;62902;48.854;9.292;2023-01-04T04:43:57;8.13;;;3.33;;
74459;SDS011;62902;48.854;9.292;2023-01-04T04:46:24;6.00;;;3.10;;
74459;SDS011;62902;48.854;9.292;2023-01-04T04:48:51;5.38;;;2.70;;
74459;SDS011;62902;48.854;9.292;2023-01-04T04:51:17;6.88;;;3.25;;
74459;SDS011;62902;48.854;9.292;2023-01-04T04:53:44;9.05;;;3.08;;
74459;SDS011;62902;48.854;9.292;2023-01-04T04:56:11;6.28;;;2.85;;
74459;SDS011;62902;48.854;9.292;2023-01-04T04:58:38;6.10;;;2.80;;
74459;SDS011;62902;48.854;9.292;2023-01-04T05:01:04;5.47;;;2.13;;
74459;SDS011;62902;48.854;9.292;2023-01-04T05:03:31;5.43;;;2.08;;
74459;SDS011;62902;48.854;9.292;2023-01-04T05:05:58;6.65;;;2.45;;
74459;SDS011;62902;48.854;9.292;2023-01-04T05:08:25;5.15;;;2.40;;
74459;SDS011;62902;48.854;9.292;2023-01-04T05:10:52;6.10;;;2.38;;
74459;SDS011;62902;48.854;9.292;2023-01-04T05:13:19;6.82;;;2.30;;
74459;SDS011;62902;48.854;9.292;2023-01-04T05:15:48;6.18;;;2.75;;
74459;SDS011;62902;48.854;9.292;2023-01-04T05:18:16;6.22;;;2.70;;
74459;SDS011;62902;48.854;9.292;2023-01-04T05:20:44;5.22;;;2.20;;
74459;SDS011;62902;48.854;9.292;2023-01-04T05:23:12;5.03;;;1.92;;
74459;SDS011;62902;48.854;9.292;2023-01-04T05:25:41;5.75;;;1.92;;
74459;SDS011;62902;48.854;9.292;2023-01-04T05:28:08;3.75;;;1.70;;
74459;SDS011;62902;48.854;9.292;2023-01-04T05:30:36;6.40;;;1.98;;
74459;SDS011;62902;48.854;9.292;2023-01-04T05:33:22;3.67;;;1.70;;
74459;SDS011;62902;48.854;9.292;2023-01-04T05:35:50;7.00;;;1.55;;
74459;SDS011;62902;48.854;9.292;2023-01-04T05:38:18;6.13;;;2.22;;
74459;SDS011;62902;48.854;9.292;2023-01-04T05:40:45;5.10;;;2.05;;
74459;SDS011;62902;48.854;9.292;2023-01-04T05:43:12;5.40;;;2.35;;
74459;SDS011;62902;48.854;9.292;2023-01-04T05:45:40;3.85;;;1.50;;
74459;SDS011;62902;48.854;9.292;2023-01-04T05:48:09;5.95;;;1.98;;
74459;SDS011;62902;48.854;9.292;2023-01-04T05:50:35;3.70;;;1.92;;
74459;SDS011;62902;48.854;9.292;2023-01-04T05:53:03;4.95;;;2.25;;
74459;SDS011;62902;48.854;9.292;2023-01-04T05:55:30;4.18;;;2.08;;
74459;SDS011;62902;48.854;9.292;2023-01-04T05:57:57;3.97;;;1.77;;
74459;SDS011;62902;48.854;9.292;2023-01-04T06:00:23;3.88;;;1.55;;
74459;SDS011;62902;48.854;9.292;2023-01-04T06:02:50;3.88;;;1.80;;
74459;SDS011;62902;48.854;9.292;2023-01-04T06:05:20;5.45;;;2.33;;
74459;SDS011;62902;48.854;9.292;2023-01-04T06:07:47;5.13;;;2.42;;
74459;SDS011;62902;48.854;9.292;2023-01-04T06:10:14;4.30;;;1.83;;
74459;SDS011;62902;48.854;9.292;2023-01-04T06:12:40;5.15;;;1.70;;
74459;SDS011;62902;48.854;9.292;2023-01-04T06:15:08;3.05;;;1.17;;
74459;SDS011;62902;48.854;9.292;2023-01-04T06:17:35;4.68;;;1.80;;
74459;SDS011;62902;48.854;9.292;2023-01-04T06:20:03;4.57;;;1.90;;
74459;SDS011;62902;48.854;9.292;2023-01-04T06:22:31;3.72;;;1.55;;
74459;SDS011;62902;48.854;9.292;2023-01-04T06:24:58;4.07;;;1.90;;
74459;SDS011;62902;48.854;9.292;2023-01-04T06:27:25;4.88;;;1.88;;
74459;SDS011;62902;48.854;9.292;2023-01-04T06:29:51;4.50;;;1.63;;
74459;SDS011;62902;48.854;9.292;2023-01-04T06:32:18;6.75;;;1.70;;
74459;SDS011;62902;48.854;9.292;2023-01-04T06:34:45;3.72;;;1.40;;
74459;SDS011;62902;48.854;9.292;2023-01-04T06:37:12;3.35;;;1.30;;
74459;SDS011;62902;48.854;9.292;2023-01-04T06:39:38;3.65;;;1.58;;
74459;SDS011;62902;48.854;9.292;2023-01-04T06:42:05;3.28;;;1.33;;
74459;SDS011;62902;48.854;9.292;2023-01-04T06:44:51;4.97;;;1.70;;
74459;SDS011;62902;48.854;9.292;2023-01-04T06:47:18;3.58;;;1.25;;
74459;SDS011;62902;48.854;9.292;2023-01-04T06:49:45;3.53;;;1.88;;
74459;SDS011;62902;48.854;9.292;2023-01-04T06:52:12;2.88;;;1.30;;
74459;SDS011;62902;48.854;9.292;2023-01-04T06:54:38;2.58;;;1.00;;
74459;SDS011;62902;48.854;9.292;2023-01-04T06:57:05;2.38;;;0.90;;
74459;SDS011;62902;48.854;9.292;2023-01-04T06:59:31;1.17;;;0.50;;
74459;SDS011;62902;48.854;9.292;2023-01-04T07:01:58;2.22;;;0.77;;
74459;SDS011;62902;48.854;9.292;2023-01-04T07:04:24;2.55;;;1.33;;
74459;SDS011;62902;48.854;9.292;2023-01-04T07:06:51;4.18;;;1.40;;
74459;SDS011;62902;48.854;9.292;2023-01-04T07:09:17;1.35;;;0.60;;
74459;SDS011;62902;48.854;9.292;2023-01-04T07:11:44;1.23;;;0.68;;
74459;SDS011;62902;48.854;9.292;2023-01-04T07:14:11;1.38;;;0.80;;
74459;SDS011;62902;48.854;9.292;2023-01-04T07:16:38;1.55;;;0.65;;
74459;SDS011;62902;48.854;9.292;2023-01-04T07:19:06;0.95;;;0.57;;
74459;SDS011;62902;48.854;9.292;2023-01-04T07:21:33;1.67;;;0.80;;
74459;SDS011;62902;48.854;9.292;2023-01-04T07:24:00;1.48;;;0.68;;
74459;SDS011;62902;48.854;9.292;2023-01-04T07:26:26;1.38;;;0.57;;
74459;SDS011;62902;48.854;9.292;2023-01-04T07:28:53;1.50;;;0.55;;
74459;SDS011;62902;48.854;9.292;2023-01-04T07:31:38;4.43;;;1.13;;
74459;SDS011;62902;48.854;9.292;2023-01-04T07:34:05;2.45;;;1.00;;
74459;SDS011;62902;48.854;9.292;2023-01-04T07:36:31;1.63;;;0.65;;
74459;SDS011;62902;48.854;9.292;2023-01-04T07:38:58;2.10;;;0.40;;
74459;SDS011;62902;48.854;9.292;2023-01-04T07:41:25;4.07;;;1.65;;
74459;SDS011;62902;48.854;9.292;2023-01-04T07:43:52;1.10;;;0.50;;
74459;SDS011;62902;48.854;9.292;2023-01-04T07:46:19;1.98;;;0.80;;
74459;SDS011;62902;48.854;9.292;2023-01-04T07:51:13;1.88;;;0.80;;
74459;SDS011;62902;48.854;9.292;2023-01-04T07:53:40;0.43;;;0.22;;
74459;SDS011;62902;48.854;9.292;2023-01-04T07:56:07;1.50;;;0.52;;
74459;SDS011;62902;48.854;9.292;2023-01-04T07:58:40;2.55;;;0.93;;
74459;SDS011;62902;48.854;9.292;2023-01-04T08:01:08;2.15;;;0.88;;
74459;SDS011;62902;48.854;9.292;2023-01-04T08:03:36;3.53;;;1.08;;
74459;SDS011;62902;48.854;9.292;2023-01-04T08:06:03;3.30;;;1.40;;
74459;SDS011;62902;48.854;9.292;2023-01-04T08:08:30;3.65;;;0.95;;
74459;SDS011;62902;48.854;9.292;2023-01-04T08:11:07;5.93;;;1.30;;
74459;SDS011;62902;48.854;9.292;2023-01-04T08:13:35;1.08;;;0.68;;
74459;SDS011;62902;48.854;9.292;2023-01-04T08:16:02;4.97;;;0.95;;
74459;SDS011;62902;48.854;9.292;2023-01-04T08:18:29;1.58;;;0.63;;
74459;SDS011;62902;48.854;9.292;2023-01-04T08:21:02;4.95;;;1.58;;
74459;SDS011;62902;48.854;9.292;2023-01-04T08:23:31;2.38;;;1.02;;
74459;SDS011;62902;48.854;9.292;2023-01-04T08:26:05;4.72;;;1.65;;
74459;SDS011;62902;48.854;9.292;2023-01-04T08:28:33;4.60;;;1.38;;
74459;SDS011;62902;48.854;9.292;2023-01-04T08:31:04;5.88;;;1.63;;
74459;SDS011;62902;48.854;9.292;2023-01-04T08:33:38;5.95;;;1.05;;
74459;SDS011;62902;48.854;9.292;2023-01-04T08:36:09;2.20;;;0.82;;
74459;SDS011;62902;48.854;9.292;2023-01-04T08:38:38;3.05;;;1.00;;
74459;SDS011;62902;48.854;9.292;2023-01-04T08:41:24;3.10;;;1.40;;
74459;SDS011;62902;48.854;9.292;2023-01-04T08:44:11;5.20;;;0.75;;
74459;SDS011;62902;48.854;9.292;2023-01-04T08:46:38;7.80;;;1.10;;
74459;SDS011;62902;48.854;9.292;2023-01-04T08:49:05;1.70;;;0.68;;
74459;SDS011;62902;48.854;9.292;2023-01-04T08:51:32;2.38;;;1.00;;
74459;SDS011;62902;48.854;9.292;2023-01-04T08:53:59;6.07;;;1.20;;
74459;SDS011;62902;48.854;9.292;2023-01-04T08:56:25;1.38;;;0.57;;
74459;SDS011;62902;48.854;9.292;2023-01-04T08:58:52;1.77;;;0.73;;
74459;SDS011;62902;48.854;9.292;2023-01-04T09:01:18;2.03;;;0.85;;
74459;SDS011;62902;48.854;9.292;2023-01-04T09:03:45;1.67;;;0.90;;
74459;SDS011;62902;48.854;9.292;2023-01-04T09:06:12;2.47;;;0.68;;
74459;SDS011;62902;48.854;9.292;2023-01-04T09:08:40;5.22;;;1.10;;
74459;SDS011;62902;48.854;9.292;2023-01-04T09:11:11;3.85;;;0.80;;
74459;SDS011;62902;48.854;9.292;2023-01-04T09:13:39;1.77;;;0.70;;
74459;SDS011;62902;48.854;9.292;2023-01-04T09:16:07;5.90;;;1.35;;
74459;SDS011;62902;48.854;9.292;2023-01-04T09:18:38;2.88;;;1.02;;
74459;SDS011;62902;48.854;9.292;2023-01-04T09:21:05;2.88;;;1.13;;
74459;SDS011;62902;48.854;9.292;2023-01-04T09:23:39;1.92;;;0.70;;
74459;SDS011;62902;48.854;9.292;2023-01-04T09:26:07;3.47;;;1.30;;
74459;SDS011;62902;48.854;9.292;2023-01-04T09:28:35;2.17;;;0.77;;
74459;SDS011;62902;48.854;9.292;2023-01-04T09:31:09;2.58;;;1.00;;
74459;SDS011;62902;48.854;9.292;2023-01-04T09:33:37;3.05;;;1.00;;
74459;SDS011;62902;48.854;9.292;2023-01-04T09:36:24;2.50;;;0.77;;
74459;SDS011;62902;48.854;9.292;2023-01-04T09:38:50;3.13;;;0.80;;
74459;SDS011;62902;48.854;9.292;2023-01-04T09:41:24;2.10;;;0.65;;
74459;SDS011;62902;48.854;9.292;2023-01-04T09:43:53;1.20;;;0.60;;
74459;SDS011;62902;48.854;9.292;2023-01-04T09:49:31;2.88;;;0.90;;
74459;SDS011;62902;48.854;9.292;2023-01-04T09:52:03;3.42;;;0.70;;
74459;SDS011;62902;48.854;9.292;2023-01-04T09:57:22;4.22;;;1.10;;
74459;SDS011;62902;48.854;9.292;2023-01-04T09:59:59;2.70;;;1.00;;
74459;SDS011;62902;48.854;9.292;2023-01-04T10:02:38;3.65;;;0.70;;
74459;SDS011;62902;48.854;9.292;2023-01-04T10:05:09;1.48;;;0.57;;
74459;SDS011;62902;48.854;9.292;2023-01-04T10:07:49;1.55;;;0.52;;
74459;SDS011;62902;48.854;9.292;2023-01-04T10:10:17;0.93;;;0.43;;
74459;SDS011;62902;48.854;9.292;2023-01-04T10:12:51;2.17;;;0.70;;
74459;SDS011;62902;48.854;9.292;2023-01-04T10:15:29;1.65;;;0.50;;
74459;SDS011;62902;48.854;9.292;2023-01-04T10:18:04;1.58;;;0.60;;
74459;SDS011;62902;48.854;9.292;2023-01-04T10:24:11;2.55;;;0.68;;
74459;SDS011;62902;48.854;9.292;2023-01-04T10:26:56;2.17;;;0.90;;
74459;SDS011;62902;48.854;9.292;2023-01-04T10:32:10;2.10;;;0.75;;
74459;SDS011;62902;48.854;9.292;2023-01-04T10:34:58;1.08;;;0.50;;
74459;SDS011;62902;48.854;9.292;2023-01-04T10:37:30;2.83;;;0.68;;
74459;SDS011;62902;48.854;9.292;2023-01-04T10:39:58;1.85;;;0.57;;
74459;SDS011;62902;48.854;9.292;2023-01-04T10:51:04;2.00;;;0.75;;
74459;SDS011;62902;48.854;9.292;2023-01-04T10:56:17;4.18;;;0.90;;
74459;SDS011;62902;48.854;9.292;2023-01-04T11:01:36;5.13;;;0.60;;
74459;SDS011;62902;48.854;9.292;2023-01-04T11:04:14;1.00;;;0.40;;
74459;SDS011;62902;48.854;9.292;2023-01-04T11:06:46;1.10;;;0.20;;
74459;SDS011;62902;48.854;9.292;2023-01-04T11:09:17;1.70;;;0.40;;
74459;SDS011;62902;48.854;9.292;2023-01-04T11:11:51;3.10;;;0.60;;
74459;SDS011;62902;48.854;9.292;2023-01-04T11:14:20;4.60;;;0.68;;
74459;SDS011;62902;48.854;9.292;2023-01-04T11:16:48;2.03;;;0.47;;
74459;SDS011;62902;48.854;9.292;2023-01-04T11:19:15;2.42;;;0.50;;
74459;SDS011;62902;48.854;9.292;2023-01-04T11:21:48;0.25;;;0.22;;
74459;SDS011;62902;48.854;9.292;2023-01-04T11:24:17;3.35;;;0.60;;
74459;SDS011;62902;48.854;9.292;2023-01-04T11:27:06;1.25;;;0.50;;
74459;SDS011;62902;48.854;9.292;2023-01-04T11:29:59;2.53;;;0.50;;
74459;SDS011;62902;48.854;9.292;2023-01-04T11:32:34;1.08;;;0.35;;
74459;SDS011;62902;48.854;9.292;2023-01-04T11:35:04;3.55;;;0.50;;
74459;SDS011;62902;48.854;9.292;2023-01-04T11:37:33;0.75;;;0.40;;
74459;SDS011;62902;48.854;9.292;2023-01-04T11:42:43;1.30;;;0.50;;
74459;SDS011;62902;48.854;9.292;2023-01-04T11:45:19;1.50;;;0.38;;
74459;SDS011;62902;48.854;9.292;2023-01-04T11:47:49;1.98;;;0.38;;
74459;SDS011;62902;48.854;9.292;2023-01-04T11:53:23;0.88;;;0.40;;
74459;SDS011;62902;48.854;9.292;2023-01-04T11:56:10;2.28;;;0.52;;
74459;SDS011;62902;48.854;9.292;2023-01-04T11:58:44;1.23;;;0.50;;
74459;SDS011;62902;48.854;9.292;2023-01-04T12:01:30;1.20;;;0.47;;
74459;SDS011;62902;48.854;9.292;2023-01-04T12:04:02;2.78;;;0.50;;
74459;SDS011;62902;48.854;9.292;2023-01-04T12:06:35;1.27;;;0.45;;
74459;SDS011;62902;48.854;9.292;2023-01-04T12:09:04;3.03;;;0.50;;
74459;SDS011;62902;48.854;9.292;2023-01-04T12:11:33;2.55;;;0.57;;
74459;SDS011;62902;48.854;9.292;2023-01-04T12:14:01;2.08;;;0.60;;
74459;SDS011;62902;48.854;9.292;2023-01-04T12:16:33;3.45;;;0.70;;
74459;SDS011;62902;48.854;9.292;2023-01-04T12:19:15;1.92;;;0.45;;
74459;SDS011;62902;48.854;9.292;2023-01-04T12:21:42;2.75;;;0.60;;
74459;SDS011;62902;48.854;9.292;2023-01-04T12:24:12;1.08;;;0.40;;
74459;SDS011;62902;48.854;9.292;2023-01-04T12:26:42;2.65;;;0.52;;
74459;SDS011;62902;48.854;9.292;2023-01-04T12:31:49;0.73;;;0.43;;
74459;SDS011;62902;48.854;9.292;2023-01-04T12:50:08;0.85;;;0.40;;
74459;SDS011;62902;48.854;9.292;2023-01-04T12:52:40;1.40;;;0.45;;
74459;SDS011;62902;48.854;9.292;2023-01-04T12:57:57;0.85;;;0.40;;
74459;SDS011;62902;48.854;9.292;2023-01-04T13:05:40;0.98;;;0.43;;
74459;SDS011;62902;48.854;9.292;2023-01-04T13:08:22;0.85;;;0.50;;
74459;SDS011;62902;48.854;9.292;2023-01-04T13:10:49;2.28;;;0.60;;
74459;SDS011;62902;48.854;9.292;2023-01-04T13:16:26;2.60;;;0.40;;
74459;SDS011;62902;48.854;9.292;2023-01-04T13:19:20;0.85;;;0.25;;
74459;SDS011;62902;48.854;9.292;2023-01-04T13:21:48;0.88;;;0.32;;
74459;SDS011;62902;48.854;9.292;2023-01-04T13:24:25;1.02;;;0.47;;
74459;SDS011;62902;48.854;9.292;2023-01-04T13:26:55;2.80;;;0.60;;
74459;SDS011;62902;48.854;9.292;2023-01-04T13:29:26;1.77;;;0.63;;
74459;SDS011;62902;48.854;9.292;2023-01-04T13:34:31;1.13;;;0.43;;
74459;SDS011;62902;48.854;9.292;2023-01-04T13:39:37;3.00;;;0.50;;
74459;SDS011;62902;48.854;9.292;2023-01-04T13:42:21;1.02;;;0.50;;
74459;SDS011;62902;48.854;9.292;2023-01-04T13:47:40;1.83;;;0.65;;
74459;SDS011;62902;48.854;9.292;2023-01-04T13:52:52;4.53;;;0.57;;
74459;SDS011;62902;48.854;9.292;2023-01-04T13:55:32;3.05;;;0.70;;
74459;SDS011;62902;48.854;9.292;2023-01-04T13:58:04;0.93;;;0.45;;
74459;SDS011;62902;48.854;9.292;2023-01-04T14:00:34;0.93;;;0.40;;
74459;SDS011;62902;48.854;9.292;2023-01-04T14:05:36;1.60;;;0.50;;
74459;SDS011;62902;48.854;9.292;2023-01-04T14:08:07;2.00;;;0.50;;
74459;SDS011;62902;48.854;9.292;2023-01-04T14:10:35;1.38;;;0.57;;
74459;SDS011;62902;48.854;9.292;2023-01-04T14:13:02;1.02;;;0.43;;
74459;SDS011;62902;48.854;9.292;2023-01-04T14:15:29;1.33;;;0.50;;
74459;SDS011;62902;48.854;9.292;2023-01-04T14:17:59;0.88;;;0.32;;
74459;SDS011;62902;48.854;9.292;2023-01-04T14:22:55;1.00;;;0.40;;
74459;SDS011;62902;48.854;9.292;2023-01-04T14:33:30;2.92;;;0.20;;
74459;SDS011;62902;48.854;9.292;2023-01-04T14:36:02;0.32;;;0.20;;
74459;SDS011;62902;48.854;9.292;2023-01-04T14:38:37;1.48;;;0.47;;
74459;SDS011;62902;48.854;9.292;2023-01-04T14:41:40;0.82;;;0.30;;
74459;SDS011;62902;48.854;9.292;2023-01-04T14:44:08;1.58;;;0.47;;
74459;SDS011;62902;48.854;9.292;2023-01-04T14:46:40;0.60;;;0.28;;
74459;SDS011;62902;48.854;9.292;2023-01-04T14:49:09;0.47;;;0.20;;
74459;SDS011;62902;48.854;9.292;2023-01-04T14:51:42;1.38;;;0.40;;
74459;SDS011;62902;48.854;9.292;2023-01-04T14:54:11;1.23;;;0.32;;
74459;SDS011;62902;48.854;9.292;2023-01-04T14:56:43;0.80;;;0.40;;
74459;SDS011;62902;48.854;9.292;2023-01-04T14:59:10;0.93;;;0.22;;
74459;SDS011;62902;48.854;9.292;2023-01-04T15:01:37;1.80;;;0.40;;
74459;SDS011;62902;48.854;9.292;2023-01-04T15:04:05;1.45;;;0.60;;
74459;SDS011;62902;48.854;9.292;2023-01-04T15:06:32;0.85;;;0.40;;
74459;SDS011;62902;48.854;9.292;2023-01-04T15:09:00;1.55;;;0.30;;
74459;SDS011;62902;48.854;9.292;2023-01-04T15:11:26;3.33;;;0.70;;
74459;SDS011;62902;48.854;9.292;2023-01-04T15:13:54;0.75;;;0.30;;
74459;SDS011;62902;48.854;9.292;2023-01-04T15:16:21;2.85;;;0.40;;
74459;SDS011;62902;48.854;9.292;2023-01-04T15:18:47;1.48;;;0.30;;
74459;SDS011;62902;48.854;9.292;2023-01-04T15:21:14;1.27;;;0.35;;
74459;SDS011;62902;48.854;9.292;2023-01-04T15:23:40;0.93;;;0.30;;
74459;SDS011;62902;48.854;9.292;2023-01-04T15:26:08;1.42;;;0.57;;
74459;SDS011;62902;48.854;9.292;2023-01-04T15:28:35;0.70;;;0.32;;
74459;SDS011;62902;48.854;9.292;2023-01-04T15:31:10;1.67;;;0.32;;
74459;SDS011;62902;48.854;9.292;2023-01-04T15:33:38;0.60;;;0.30;;
74459;SDS011;62902;48.854;9.292;2023-01-04T15:36:06;1.00;;;0.35;;
74459;SDS011;62902;48.854;9.292;2023-01-04T15:38:35;0.60;;;0.20;;
74459;SDS011;62902;48.854;9.292;2023-01-04T15:41:06;0.52;;;0.32;;
74459;SDS011;62902;48.854;9.292;2023-01-04T15:43:35;4.75;;;0.47;;
74459;SDS011;62902;48.854;9.292;2023-01-04T15:46:05;2.33;;;0.57;;
74459;SDS011;62902;48.854;9.292;2023-01-04T15:48:36;2.75;;;0.60;;
74459;SDS011;62902;48.854;9.292;2023-01-04T15:51:03;0.95;;;0.40;;
74459;SDS011;62902;48.854;9.292;2023-01-04T15:53:33;0.95;;;0.40;;
74459;SDS011;62902;48.854;9.292;2023-01-04T15:56:03;0.35;;;0.20;;
74459;SDS011;62902;48.854;9.292;2023-01-04T15:58:34;1.73;;;0.57;;
74459;SDS011;62902;48.854;9.292;2023-01-04T16:01:10;4.57;;;0.60;;
74459;SDS011;62902;48.854;9.292;2023-01-04T16:03:39;0.77;;;0.40;;
74459;SDS011;62902;48.854;9.292;2023-01-04T16:08:32;1.73;;;0.40;;
74459;SDS011;62902;48.854;9.292;2023-01-04T16:11:06;1.70;;;0.40;;
74459;SDS011;62902;48.854;9.292;2023-01-04T16:13:33;3.13;;;0.70;;
74459;SDS011;62902;48.854;9.292;2023-01-04T16:16:00;1.67;;;0.70;;
74459;SDS011;62902;48.854;9.292;2023-01-04T16:18:27;2.30;;;0.50;;
74459;SDS011;62902;48.854;9.292;2023-01-04T16:20:57;1.27;;;0.40;;
74459;SDS011;62902;48.854;9.292;2023-01-04T16:23:25;1.38;;;0.50;;
74459;SDS011;62902;48.854;9.292;2023-01-04T16:26:02;2.70;;;0.50;;
74459;SDS011;62902;48.854;9.292;2023-01-04T16:28:30;0.50;;;0.30;;
74459;SDS011;62902;48.854;9.292;2023-01-04T16:30:57;1.67;;;0.70;;
74459;SDS011;62902;48.854;9.292;2023-01-04T16:33:24;1.35;;;0.40;;
74459;SDS011;62902;48.854;9.292;2023-01-04T16:35:57;1.42;;;0.40;;
74459;SDS011;62902;48.854;9.292;2023-01-04T16:38:25;1.55;;;0.70;;
74459;SDS011;62902;48.854;9.292;2023-01-04T16:40:58;0.93;;;0.47;;
74459;SDS011;62902;48.854;9.292;2023-01-04T16:43:26;3.90;;;0.50;;
74459;SDS011;62902;48.854;9.292;2023-01-04T16:48:42;1.05;;;0.50;;
74459;SDS011;62902;48.854;9.292;2023-01-04T16:51:09;1.40;;;0.52;;
74459;SDS011;62902;48.854;9.292;2023-01-04T16:53:36;1.08;;;0.40;;
74459;SDS011;62902;48.854;9.292;2023-01-04T16:56:05;1.08;;;0.43;;
74459;SDS011;62902;48.854;9.292;2023-01-04T16:58:33;1.40;;;0.47;;
74459;SDS011;62902;48.854;9.292;2023-01-04T17:01:16;3.13;;;0.90;;
74459;SDS011;62902;48.854;9.292;2023-01-04T17:03:45;1.40;;;0.57;;
74459;SDS011;62902;48.854;9.292;2023-01-04T17:06:13;2.50;;;0.93;;
74459;SDS011;62902;48.854;9.292;2023-01-04T17:08:42;1.10;;;0.50;;
74459;SDS011;62902;48.854;9.292;2023-01-04T17:11:11;1.63;;;0.40;;
74459;SDS011;62902;48.854;9.292;2023-01-04T17:13:58;0.98;;;0.40;;